Time;durP1;ratioP1;P1;durP2;ratioP2;P2;SDS_P1;SDS_P2;PMS_P1;PMS_P2;Temp;Humidity;BMP_temperature;BMP_pressure;BME280_temperature;BME280_humidity;BME280_pressure;Samples;Min_cycle;Max_cycle;Signal;HPM_P1;HPM_P2
2022/08/17 00:02:08;;;;;;;;;7.75;7.75;;;;;;;;5179374;28;8805;-74
2022/08/17 00:04:39;;;;;;;;;10.00;10.00;;;;;;;;5171387;28;8788;-73
2022/08/17 00:07:10;;;;;;;;;10.50;10.50;;;;;;;;5186815;28;8797;-74
2022/08/17 00:09:42;;;;;;;;;10.50;10.50;;;;;;;;5173873;28;8817;-75
2022/08/17 00:12:13;;;;;;;;;10.50;10.50;;;;;;;;5220987;28;8789;-74
2022/08/17 00:14:44;;;;;;;;;9.25;9.25;;;;;;;;5189941;28;8789;-75
2022/08/17 00:17:17;;;;;;;;;9.00;9.00;;;;;;;;5187427;28;8801;-75
2022/08/17 00:19:48;;;;;;;;;11.75;11.75;;;;;;;;5205044;28;8794;-76
2022/08/17 00:22:19;;;;;;;;;10.50;10.50;;;;;;;;5171199;28;8797;-74
2022/08/17 00:24:50;;;;;;;;;14.25;14.25;;;;;;;;5154986;28;8789;-75
2022/08/17 00:27:22;;;;;;;;;10.00;10.00;;;;;;;;5166992;28;8838;-74
2022/08/17 00:29:53;;;;;;;;;7.25;7.25;;;;;;;;5189785;28;8767;-74
2022/08/17 00:32:25;;;;;;;;;12.75;12.75;;;;;;;;5187068;28;8785;-74
2022/08/17 00:34:56;;;;;;;;;11.50;11.50;;;;;;;;5170985;28;8953;-76
2022/08/17 00:37:27;;;;;;;;;9.75;9.75;;;;;;;;5187053;28;8781;-74
2022/08/17 00:39:59;;;;;;;;;11.00;11.00;;;;;;;;5187279;28;8800;-75
2022/08/17 00:42:30;;;;;;;;;8.50;8.50;;;;;;;;5185661;28;8817;-74
2022/08/17 00:45:03;;;;;;;;;10.50;10.25;;;;;;;;5171550;28;9656;-73
2022/08/17 00:47:53;;;;;;;;;11.00;11.00;;;;;;;;5207270;28;8798;-73
2022/08/17 00:50:24;;;;;;;;;8.75;8.75;;;;;;;;5191024;28;8787;-73
2022/08/17 00:52:56;;;;;;;;;13.00;13.00;;;;;;;;5174603;28;9498;-73
2022/08/17 00:55:28;;;;;;;;;10.00;10.00;;;;;;;;5174940;28;8767;-73
2022/08/17 00:58:02;;;;;;;;;10.25;10.25;;;;;;;;5199851;28;8964;-73
2022/08/17 01:00:52;;;;;;;;;7.75;7.75;;;;;;;;5184062;28;8909;-73
2022/08/17 01:03:25;;;;;;;;;8.75;8.75;;;;;;;;5194407;28;8767;-73
2022/08/17 01:06:14;;;;;;;;;7.50;7.50;;;;;;;;5182256;28;8856;-78
2022/08/17 01:08:46;;;;;;;;;13.75;13.75;;;;;;;;5174268;28;8895;-79
2022/08/17 01:11:17;;;;;;;;;12.75;12.25;;;;;;;;5190760;28;8773;-77
2022/08/17 01:14:10;;;;;;;;;9.25;8.75;;;;;;;;5206666;28;8809;-74
2022/08/17 01:16:41;;;;;;;;;11.75;11.75;;;;;;;;5190189;28;8917;-74
2022/08/17 01:19:44;;;;;;;;;11.75;11.75;;;;;;;;5170924;28;8929;-73
2022/08/17 01:22:20;;;;;;;;;12.75;12.75;;;;;;;;5179050;28;8836;-74
2022/08/17 01:24:59;;;;;;;;;16.50;16.50;;;;;;;;5203578;28;9570;-73
2022/08/17 01:27:31;;;;;;;;;13.75;13.75;;;;;;;;5170096;28;8917;-74
2022/08/17 01:30:05;;;;;;;;;11.00;11.00;;;;;;;;5169572;28;8878;-73
2022/08/17 01:32:36;;;;;;;;;13.75;13.75;;;;;;;;5169312;28;8803;-75
2022/08/17 01:35:08;;;;;;;;;14.00;14.00;;;;;;;;5187021;28;8799;-74
2022/08/17 01:37:40;;;;;;;;;15.75;15.75;;;;;;;;5202441;28;8870;-74
2022/08/17 01:40:14;;;;;;;;;14.25;14.25;;;;;;;;5185826;28;8916;-74
2022/08/17 01:42:47;;;;;;;;;14.75;14.75;;;;;;;;5169356;28;9569;-74
2022/08/17 01:45:30;;;;;;;;;14.25;14.25;;;;;;;;5169293;28;8795;-76
2022/08/17 01:48:02;;;;;;;;;14.00;14.00;;;;;;;;5170048;28;8821;-74
2022/08/17 01:50:36;;;;;;;;;14.50;14.50;;;;;;;;5153173;28;8794;-73
2022/08/17 01:53:13;;;;;;;;;14.50;14.50;;;;;;;;5168965;28;8803;-74
2022/08/17 01:55:47;;;;;;;;;15.75;15.75;;;;;;;;5152596;28;8791;-74
2022/08/17 01:58:19;;;;;;;;;16.50;16.50;;;;;;;;5193987;28;8800;-74
2022/08/17 02:00:56;;;;;;;;;13.75;13.75;;;;;;;;5168579;28;8833;-73
2022/08/17 02:04:10;;;;;;;;;17.20;17.20;;;;;;;;5185573;28;9545;-74
2022/08/17 02:06:44;;;;;;;;;12.50;12.50;;;;;;;;5168717;28;8809;-74
2022/08/17 02:09:15;;;;;;;;;13.50;13.50;;;;;;;;5185042;28;8918;-75
2022/08/17 02:11:46;;;;;;;;;18.25;17.50;;;;;;;;5185397;28;8795;-79
2022/08/17 02:14:18;;;;;;;;;17.50;17.50;;;;;;;;5185207;28;8791;-77
2022/08/17 02:16:50;;;;;;;;;23.40;20.60;;;;;;;;5169192;28;9538;-77
2022/08/17 02:19:21;;;;;;;;;21.40;20.00;;;;;;;;5204701;28;8943;-77
2022/08/17 02:22:11;;;;;;;;;19.20;18.00;;;;;;;;5195830;28;8803;-78
2022/08/17 02:25:02;;;;;;;;;18.80;17.40;;;;;;;;5208766;28;8799;-76
2022/08/17 02:27:52;;;;;;;;;13.75;13.75;;;;;;;;5195517;28;8841;-75
2022/08/17 02:30:25;;;;;;;;;16.75;16.00;;;;;;;;5192957;28;8779;-79
2022/08/17 02:32:56;;;;;;;;;14.50;14.00;;;;;;;;5208987;28;8799;-77
2022/08/17 02:35:28;;;;;;;;;13.75;13.75;;;;;;;;5208714;28;8898;-77
2022/08/17 02:38:00;;;;;;;;;14.75;13.00;;;;;;;;5177180;28;8801;-77
2022/08/17 02:40:33;;;;;;;;;14.00;13.00;;;;;;;;5180953;28;8868;-77
2022/08/17 02:43:06;;;;;;;;;14.00;12.50;;;;;;;;5172485;28;8813;-79
2022/08/17 02:45:38;;;;;;;;;15.00;13.50;;;;;;;;5159709;28;8791;-75
2022/08/17 02:48:10;;;;;;;;;24.20;22.60;;;;;;;;5179979;28;8919;-77
2022/08/17 02:50:45;;;;;;;;;12.00;12.00;;;;;;;;5188428;28;8805;-76
2022/08/17 02:53:17;;;;;;;;;14.75;13.50;;;;;;;;5172293;28;8900;-76
2022/08/17 02:55:49;;;;;;;;;13.50;12.75;;;;;;;;5183547;28;8793;-78
2022/08/17 02:58:40;;;;;;;;;16.00;15.25;;;;;;;;5186265;28;8821;-77
2022/08/17 03:01:11;;;;;;;;;16.50;15.75;;;;;;;;5191902;28;8814;-78
2022/08/17 03:03:44;;;;;;;;;14.75;14.25;;;;;;;;5187960;28;8813;-77
2022/08/17 03:06:16;;;;;;;;;13.75;13.75;;;;;;;;5171811;28;8781;-76
2022/08/17 03:08:47;;;;;;;;;12.25;12.25;;;;;;;;5172236;28;8797;-77
2022/08/17 03:11:18;;;;;;;;;7.50;7.00;;;;;;;;5188761;28;8795;-77
2022/08/17 03:13:50;;;;;;;;;14.50;14.50;;;;;;;;5189489;28;8805;-76
2022/08/17 03:16:21;;;;;;;;;12.50;12.50;;;;;;;;5207793;28;9615;-77
2022/08/17 03:18:53;;;;;;;;;11.50;11.50;;;;;;;;5191490;28;9588;-76
2022/08/17 03:21:25;;;;;;;;;11.25;11.25;;;;;;;;5192397;28;9583;-75
2022/08/17 03:23:56;;;;;;;;;12.25;11.50;;;;;;;;5192378;28;8771;-76
2022/08/17 03:26:27;;;;;;;;;12.00;12.00;;;;;;;;5208617;28;9555;-77
2022/08/17 03:28:59;;;;;;;;;12.75;12.75;;;;;;;;5191839;28;8793;-77
2022/08/17 03:31:30;;;;;;;;;12.50;12.50;;;;;;;;5175993;28;9544;-77
2022/08/17 03:34:01;;;;;;;;;10.50;10.50;;;;;;;;5186763;28;8986;-78
2022/08/17 03:36:32;;;;;;;;;8.50;8.50;;;;;;;;5205480;28;8928;-77
2022/08/17 03:39:04;;;;;;;;;12.25;12.00;;;;;;;;5175139;28;9700;-77
2022/08/17 03:41:35;;;;;;;;;10.00;10.00;;;;;;;;5207599;28;8904;-78
2022/08/17 03:44:07;;;;;;;;;11.00;11.00;;;;;;;;5175400;28;8801;-75
2022/08/17 03:57:58;;;;;;;;;10.00;10.00;;;;;;;;5191182;28;8799;-74
2022/08/17 04:00:29;;;;;;;;;7.00;7.00;;;;;;;;5207051;28;8799;-75
2022/08/17 04:03:00;;;;;;;;;4.00;4.00;;;;;;;;5191568;28;8818;-74
2022/08/17 04:05:49;;;;;;;;;7.50;7.50;;;;;;;;5193953;28;8864;-74
2022/08/17 04:08:21;;;;;;;;;8.50;8.50;;;;;;;;5206595;28;8933;-74
2022/08/17 04:11:10;;;;;;;;;7.00;7.00;;;;;;;;5191687;28;8794;-74
2022/08/17 04:13:42;;;;;;;;;16.00;15.00;;;;;;;;5206222;28;8779;-75
2022/08/17 04:16:13;;;;;;;;;12.25;12.25;;;;;;;;5207177;28;8819;-74
2022/08/17 04:18:44;;;;;;;;;15.75;14.75;;;;;;;;5201423;28;8844;-75
2022/08/17 04:21:16;;;;;;;;;8.75;8.75;;;;;;;;5183074;28;8892;-75
2022/08/17 04:23:47;;;;;;;;;14.00;14.00;;;;;;;;5193325;28;8823;-79
2022/08/17 04:26:18;;;;;;;;;9.50;9.50;;;;;;;;5187129;28;9637;-74
2022/08/17 04:28:50;;;;;;;;;10.50;10.50;;;;;;;;5204312;28;8792;-78
2022/08/17 04:31:21;;;;;;;;;38.00;32.80;;;;;;;;5187854;28;8800;-79
2022/08/17 04:33:53;;;;;;;;;11.75;11.75;;;;;;;;5187232;28;8848;-78
2022/08/17 04:36:46;;;;;;;;;10.25;10.25;;;;;;;;5194770;28;8789;-77
2022/08/17 04:39:35;;;;;;;;;10.25;10.25;;;;;;;;5208860;28;9578;-78
2022/08/17 04:42:15;;;;;;;;;8.00;8.00;;;;;;;;5175120;28;8808;-78
2022/08/17 04:44:47;;;;;;;;;10.75;9.50;;;;;;;;5207970;28;8885;-75
2022/08/17 04:47:18;;;;;;;;;7.00;7.00;;;;;;;;5198024;28;8789;-76
2022/08/17 04:49:49;;;;;;;;;28.50;28.00;;;;;;;;5213766;28;8780;-75
2022/08/17 04:52:21;;;;;;;;;13.00;13.00;;;;;;;;5212010;28;8803;-74
2022/08/17 04:54:52;;;;;;;;;10.25;10.25;;;;;;;;5185643;28;9530;-76
2022/08/17 04:57:23;;;;;;;;;9.75;9.50;;;;;;;;5188842;28;8866;-75
2022/08/17 04:59:54;;;;;;;;;8.50;8.50;;;;;;;;5189456;28;8772;-75
2022/08/17 05:02:25;;;;;;;;;7.25;7.25;;;;;;;;5170140;28;8810;-76
2022/08/17 05:04:56;;;;;;;;;3.50;3.25;;;;;;;;5168722;28;8910;-75
2022/08/17 05:07:28;;;;;;;;;6.00;6.00;;;;;;;;5184642;28;8806;-76
2022/08/17 05:09:59;;;;;;;;;27.75;27.50;;;;;;;;5172204;28;9546;-75
2022/08/17 05:12:31;;;;;;;;;43.40;37.80;;;;;;;;5177376;28;8808;-77
2022/08/17 05:15:03;;;;;;;;;9.75;9.75;;;;;;;;5181769;28;8957;-75
2022/08/17 05:17:34;;;;;;;;;7.25;7.25;;;;;;;;5204642;28;8796;-76
2022/08/17 05:20:06;;;;;;;;;9.00;8.75;;;;;;;;5194661;28;8817;-75
2022/08/17 05:22:45;;;;;;;;;11.00;11.00;;;;;;;;5220755;28;8799;-73
2022/08/17 05:25:39;;;;;;;;;13.25;11.50;;;;;;;;5214621;28;8826;-76
2022/08/17 05:28:10;;;;;;;;;8.25;8.25;;;;;;;;5170015;28;8808;-74
2022/08/17 05:30:41;;;;;;;;;9.00;9.00;;;;;;;;5206000;28;8785;-75
2022/08/17 05:33:15;;;;;;;;;5.00;5.00;;;;;;;;5188936;28;8824;-76
2022/08/17 05:35:47;;;;;;;;;5.50;5.50;;;;;;;;5171827;28;8793;-76
2022/08/17 05:38:21;;;;;;;;;5.75;5.75;;;;;;;;5173048;28;8801;-75
2022/08/17 05:40:52;;;;;;;;;6.67;6.67;;;;;;;;5189272;28;8801;-75
2022/08/17 05:43:25;;;;;;;;;4.25;4.25;;;;;;;;5175935;28;8943;-75
2022/08/17 05:46:19;;;;;;;;;6.00;6.00;;;;;;;;5161006;28;8835;-76
2022/08/17 05:48:56;;;;;;;;;6.75;6.75;;;;;;;;5193721;28;8769;-72
2022/08/17 05:51:30;;;;;;;;;23.75;23.75;;;;;;;;5195408;28;8801;-77
2022/08/17 05:54:22;;;;;;;;;8.00;8.00;;;;;;;;5176005;28;8793;-76
2022/08/17 05:56:58;;;;;;;;;6.00;6.00;;;;;;;;5157193;28;8839;-76
2022/08/17 05:59:49;;;;;;;;;28.25;27.50;;;;;;;;5173192;28;8780;-76
2022/08/17 06:02:26;;;;;;;;;7.25;7.25;;;;;;;;5173311;28;9581;-77
2022/08/17 06:04:57;;;;;;;;;6.50;6.00;;;;;;;;5156946;28;8777;-77
2022/08/17 06:07:32;;;;;;;;;8.50;8.50;;;;;;;;5173098;28;8781;-77
2022/08/17 06:10:13;;;;;;;;;4.00;4.00;;;;;;;;5173407;28;8769;-77
2022/08/17 06:12:47;;;;;;;;;6.50;6.50;;;;;;;;5189828;28;8793;-77
2022/08/17 06:15:29;;;;;;;;;6.25;6.00;;;;;;;;5157164;28;8773;-77
2022/08/17 06:18:02;;;;;;;;;6.00;6.00;;;;;;;;5172501;28;8815;-77
2022/08/17 06:21:00;;;;;;;;;3.50;3.50;;;;;;;;5158063;28;8823;-77
2022/08/17 06:23:53;;;;;;;;;5.00;5.00;;;;;;;;5175683;28;9481;-76
2022/08/17 06:26:44;;;;;;;;;4.25;4.25;;;;;;;;5191768;28;8800;-78
2022/08/17 06:29:15;;;;;;;;;2.25;2.25;;;;;;;;5172564;28;8773;-78
2022/08/17 06:31:47;;;;;;;;;3.75;3.75;;;;;;;;5189040;28;8811;-77
2022/08/17 06:34:19;;;;;;;;;3.25;3.25;;;;;;;;5156523;28;8788;-76
2022/08/17 06:37:07;;;;;;;;;3.50;3.50;;;;;;;;5172641;28;8785;-78
2022/08/17 06:39:58;;;;;;;;;5.00;5.00;;;;;;;;5172590;28;8777;-77
2022/08/17 06:42:59;;;;;;;;;3.50;3.50;;;;;;;;5188957;28;8805;-77
2022/08/17 06:45:34;;;;;;;;;6.25;6.25;;;;;;;;5147750;28;8781;-77
2022/08/17 06:48:11;;;;;;;;;4.75;4.25;;;;;;;;5188841;28;8777;-77
2022/08/17 06:51:08;;;;;;;;;6.00;6.00;;;;;;;;5156224;28;8770;-77
2022/08/17 06:53:52;;;;;;;;;1.50;1.50;;;;;;;;5153610;28;9767;-77
2022/08/17 06:56:31;;;;;;;;;3.50;3.50;;;;;;;;5172537;28;9591;-78
2022/08/17 06:59:03;;;;;;;;;5.00;5.00;;;;;;;;5206335;28;8769;-78
2022/08/17 07:01:37;;;;;;;;;8.00;8.00;;;;;;;;5188303;28;8824;-78
2022/08/17 07:04:18;;;;;;;;;4.00;4.00;;;;;;;;5205796;28;8793;-77
2022/08/17 07:08:00;;;;;;;;;0.50;0.50;;;;;;;;5155913;28;8793;-78
2022/08/17 07:09:54;;;;;;;;;4.75;4.75;;;;;;;;5190040;28;8793;-77
2022/08/17 07:12:36;;;;;;;;;4.00;4.00;;;;;;;;5188140;28;8781;-77
2022/08/17 07:15:12;;;;;;;;;0.25;0.25;;;;;;;;5172307;28;8785;-76
2022/08/17 07:18:02;;;;;;;;;3.75;3.75;;;;;;;;5204650;28;8936;-77
2022/08/17 07:20:34;;;;;;;;;2.00;2.00;;;;;;;;5188182;28;8875;-77
2022/08/17 07:23:17;;;;;;;;;2.00;2.00;;;;;;;;5155666;28;8793;-77
2022/08/17 07:25:49;;;;;;;;;2.25;2.25;;;;;;;;5172214;28;8794;-77
2022/08/17 07:28:21;;;;;;;;;3.00;3.00;;;;;;;;5171922;28;8781;-76
2022/08/17 07:30:53;;;;;;;;;5.00;5.00;;;;;;;;5210846;28;8761;-76
2022/08/17 07:33:26;;;;;;;;;3.50;3.50;;;;;;;;5228294;28;8804;-76
2022/08/17 07:35:58;;;;;;;;;3.00;3.00;;;;;;;;5188683;28;8796;-78
2022/08/17 07:38:31;;;;;;;;;3.25;3.25;;;;;;;;5205991;28;8781;-77
2022/08/17 07:41:06;;;;;;;;;2.00;2.00;;;;;;;;5155403;28;8863;-78
2022/08/17 07:43:40;;;;;;;;;4.00;4.00;;;;;;;;5171399;28;8785;-77
2022/08/17 07:49:13;;;;;;;;;3.00;3.00;;;;;;;;5187981;28;8796;-77
2022/08/17 07:51:47;;;;;;;;;15.50;15.50;;;;;;;;5171281;28;9694;-77
2022/08/17 07:54:23;;;;;;;;;6.50;6.50;;;;;;;;5187663;28;9588;-76
2022/08/17 07:56:59;;;;;;;;;4.00;4.00;;;;;;;;5171370;28;8809;-77
2022/08/17 08:00:00;;;;;;;;;6.00;6.00;;;;;;;;5190351;28;8884;-77
2022/08/17 08:02:40;;;;;;;;;4.75;4.75;;;;;;;;5156167;28;8826;-76
2022/08/17 08:05:22;;;;;;;;;5.75;5.75;;;;;;;;5171551;28;8942;-77
2022/08/17 08:07:58;;;;;;;;;3.25;3.25;;;;;;;;5155174;28;8797;-78
2022/08/17 08:10:57;;;;;;;;;4.50;4.50;;;;;;;;5173724;28;9643;-78
2022/08/17 08:13:31;;;;;;;;;6.75;6.75;;;;;;;;5171411;28;8777;-78
2022/08/17 08:16:23;;;;;;;;;4.00;4.00;;;;;;;;5170977;28;8850;-78
2022/08/17 08:18:55;;;;;;;;;4.75;4.75;;;;;;;;5170761;28;8837;-78
2022/08/17 08:21:50;;;;;;;;;3.00;3.00;;;;;;;;5171095;28;8828;-78
2022/08/17 08:24:25;;;;;;;;;2.50;2.50;;;;;;;;5187596;28;8789;-78
2022/08/17 08:27:16;;;;;;;;;0.00;0.00;;;;;;;;5187456;28;8824;-78
2022/08/17 08:29:51;;;;;;;;;0.00;0.00;;;;;;;;5205017;28;8842;-78
2022/08/17 08:32:38;;;;;;;;;1.00;1.00;;;;;;;;5170812;28;8915;-78
2022/08/17 08:35:30;;;;;;;;;3.50;3.50;;;;;;;;5171016;28;8831;-78
2022/08/17 08:38:22;;;;;;;;;3.25;3.25;;;;;;;;5171361;28;8777;-78
2022/08/17 08:40:56;;;;;;;;;3.50;3.50;;;;;;;;5171084;28;8793;-78
2022/08/17 08:43:36;;;;;;;;;4.00;4.00;;;;;;;;5187198;28;8789;-78
2022/08/17 08:46:07;;;;;;;;;5.25;5.25;;;;;;;;5154417;28;8793;-78
2022/08/17 08:48:44;;;;;;;;;4.67;4.67;;;;;;;;5187208;28;8797;-78
2022/08/17 08:51:15;;;;;;;;;1.75;1.75;;;;;;;;5171095;28;12104;-78
2022/08/17 08:53:47;;;;;;;;;2.75;2.75;;;;;;;;5170652;28;8785;-78
2022/08/17 08:56:43;;;;;;;;;18.25;18.00;;;;;;;;5203894;28;8809;-78
2022/08/17 08:59:44;;;;;;;;;5.00;5.00;;;;;;;;5187403;28;8931;-78
2022/08/17 09:02:27;;;;;;;;;4.00;4.00;;;;;;;;5178068;28;8939;-78
2022/08/17 09:05:28;;;;;;;;;4.00;4.00;;;;;;;;5203556;28;8791;-78
2022/08/17 09:08:05;;;;;;;;;4.75;4.75;;;;;;;;5187257;28;8777;-78
2022/08/17 09:11:01;;;;;;;;;3.50;3.50;;;;;;;;5203553;28;8781;-78
2022/08/17 09:13:46;;;;;;;;;2.50;2.50;;;;;;;;5154692;28;8761;-78
2022/08/17 09:16:39;;;;;;;;;2.75;2.75;;;;;;;;5154953;28;8781;-78
2022/08/17 09:19:29;;;;;;;;;2.50;2.50;;;;;;;;5150471;28;8821;-78
2022/08/17 09:22:09;;;;;;;;;4.50;4.50;;;;;;;;5174563;28;8935;-78
2022/08/17 09:25:14;;;;;;;;;5.00;5.00;;;;;;;;5204375;28;8797;-79
2022/08/17 09:27:45;;;;;;;;;4.75;4.75;;;;;;;;5157955;28;8820;-78
2022/08/17 09:30:17;;;;;;;;;3.75;3.75;;;;;;;;5208338;28;8766;-78
2022/08/17 09:33:07;;;;;;;;;3.50;3.50;;;;;;;;5193129;28;8785;-78
2022/08/17 09:35:44;;;;;;;;;3.25;3.25;;;;;;;;5173933;28;8862;-78
2022/08/17 09:38:18;;;;;;;;;4.00;4.00;;;;;;;;5173686;28;8786;-78
2022/08/17 09:40:55;;;;;;;;;3.00;3.00;;;;;;;;5189983;28;8943;-78
2022/08/17 09:43:26;;;;;;;;;6.00;6.00;;;;;;;;5189980;28;8816;-78
2022/08/17 09:46:23;;;;;;;;;4.00;4.00;;;;;;;;5207431;28;8801;-78
2022/08/17 09:49:03;;;;;;;;;4.00;4.00;;;;;;;;5190399;28;8777;-78
2022/08/17 09:51:38;;;;;;;;;3.00;3.00;;;;;;;;5173448;28;8821;-78
2022/08/17 09:54:30;;;;;;;;;3.00;3.00;;;;;;;;5157464;28;8971;-78
2022/08/17 09:57:12;;;;;;;;;5.50;5.50;;;;;;;;5189302;28;8875;-78
2022/08/17 09:59:46;;;;;;;;;4.50;4.50;;;;;;;;5189685;28;8840;-78
2022/08/17 10:02:29;;;;;;;;;4.00;4.00;;;;;;;;5173531;28;9718;-78
2022/08/17 10:05:03;;;;;;;;;7.00;7.00;;;;;;;;5173439;28;8785;-78
2022/08/17 10:07:47;;;;;;;;;5.00;5.00;;;;;;;;5190001;28;8773;-78
2022/08/17 10:10:23;;;;;;;;;4.00;4.00;;;;;;;;5207794;28;8808;-78
2022/08/17 10:13:14;;;;;;;;;4.25;4.25;;;;;;;;5207355;28;8881;-77
2022/08/17 10:16:02;;;;;;;;;5.50;5.50;;;;;;;;5189264;28;8782;-78
2022/08/17 10:18:39;;;;;;;;;2.75;2.75;;;;;;;;5207226;28;8838;-77
2022/08/17 10:27:19;;;;;;;;;5.50;5.50;;;;;;;;5189217;28;8796;-78
2022/08/17 10:29:53;;;;;;;;;4.50;4.50;;;;;;;;5189185;28;8854;-79
2022/08/17 10:32:23;;;;;;;;;5.50;5.50;;;;;;;;5188530;28;8834;-79
2022/08/17 10:35:15;;;;;;;;;6.00;5.33;;;;;;;;5173015;28;9514;-78
2022/08/17 10:38:02;;;;;;;;;5.50;5.00;;;;;;;;5188683;28;11433;-78
2022/08/17 10:40:49;;;;;;;;;8.25;8.25;;;;;;;;5188873;28;8801;-78
2022/08/17 10:43:40;;;;;;;;;7.50;7.50;;;;;;;;5172658;28;8817;-78
2022/08/17 10:46:11;;;;;;;;;5.50;5.50;;;;;;;;5189126;28;8855;-77
2022/08/17 10:48:43;;;;;;;;;5.00;5.00;;;;;;;;5188896;28;9470;-77
2022/08/17 10:51:37;;;;;;;;;5.00;5.00;;;;;;;;5191789;28;8807;-77
2022/08/17 10:54:24;;;;;;;;;4.00;4.00;;;;;;;;5188824;28;8782;-77
2022/08/17 10:56:55;;;;;;;;;3.00;3.00;;;;;;;;5172626;28;8811;-77
2022/08/17 10:59:47;;;;;;;;;6.00;6.00;;;;;;;;5172034;28;9500;-78
2022/08/17 11:02:24;;;;;;;;;5.75;5.50;;;;;;;;5188752;28;8793;-78
2022/08/17 11:05:08;;;;;;;;;9.00;9.00;;;;;;;;5180295;28;8785;-77
2022/08/17 11:08:04;;;;;;;;;5.00;5.00;;;;;;;;5215032;28;8815;-78
2022/08/17 11:10:41;;;;;;;;;4.25;4.25;;;;;;;;5185362;28;8784;-78
2022/08/17 11:13:26;;;;;;;;;5.00;5.00;;;;;;;;5172293;28;9496;-78
2022/08/17 11:16:16;;;;;;;;;4.50;4.50;;;;;;;;5188263;28;8800;-78
2022/08/17 11:19:07;;;;;;;;;8.00;8.00;;;;;;;;5172161;28;8793;-78
2022/08/17 11:21:49;;;;;;;;;17.50;17.50;;;;;;;;5156030;28;8809;-78
2022/08/17 11:24:27;;;;;;;;;8.00;8.00;;;;;;;;5171961;28;8850;-78
2022/08/17 11:27:04;;;;;;;;;3.00;3.00;;;;;;;;5162457;28;8876;-77
2022/08/17 11:29:37;;;;;;;;;5.25;5.25;;;;;;;;5192161;28;8777;-78
2022/08/17 11:32:25;;;;;;;;;8.00;8.00;;;;;;;;5155285;28;8785;-80
2022/08/17 11:35:05;;;;;;;;;6.00;6.00;;;;;;;;5171616;28;8777;-74
2022/08/17 11:37:55;;;;;;;;;62.40;51.80;;;;;;;;5186088;28;8847;-78
2022/08/17 11:40:49;;;;;;;;;6.25;6.25;;;;;;;;5188585;28;8802;-77
2022/08/17 11:43:42;;;;;;;;;6.00;6.00;;;;;;;;5168815;28;8916;-78
2022/08/17 11:52:37;;;;;;;;;5.25;5.25;;;;;;;;5185803;28;8799;-77
2022/08/17 11:55:10;;;;;;;;;3.25;3.25;;;;;;;;5191674;28;8846;-78
2022/08/17 11:58:00;;;;;;;;;4.00;4.00;;;;;;;;5174588;28;8785;-77
2022/08/17 12:00:43;;;;;;;;;10.50;10.50;;;;;;;;5172211;28;8797;-76
2022/08/17 12:03:23;;;;;;;;;6.50;6.50;;;;;;;;5193350;28;8971;-77
2022/08/17 12:06:15;;;;;;;;;4.00;4.00;;;;;;;;5168398;28;9538;-77
2022/08/17 12:08:50;;;;;;;;;3.50;3.50;;;;;;;;5201904;28;8897;-79
2022/08/17 12:11:45;;;;;;;;;2.25;2.25;;;;;;;;5216702;28;8984;-80
2022/08/17 12:14:25;;;;;;;;;3.50;3.50;;;;;;;;5218265;28;8771;-79
2022/08/17 12:17:06;;;;;;;;;3.75;3.75;;;;;;;;5205523;28;8786;-78
2022/08/17 12:19:38;;;;;;;;;3.50;3.50;;;;;;;;5215696;28;8796;-76
2022/08/17 12:22:12;;;;;;;;;3.75;3.75;;;;;;;;5218515;28;8829;-77
2022/08/17 12:25:09;;;;;;;;;4.00;4.00;;;;;;;;5185856;28;8854;-80
2022/08/17 12:27:45;;;;;;;;;4.50;4.50;;;;;;;;5179837;28;8803;-77
2022/08/17 12:30:20;;;;;;;;;4.50;4.50;;;;;;;;5197278;28;8807;-77
2022/08/17 12:32:52;;;;;;;;;6.00;6.00;;;;;;;;5179339;28;9567;-76
2022/08/17 12:35:32;;;;;;;;;4.50;4.50;;;;;;;;5170628;28;8935;-77
2022/08/17 12:38:07;;;;;;;;;3.00;3.00;;;;;;;;5188164;28;8847;-75
2022/08/17 12:40:38;;;;;;;;;3.75;3.00;;;;;;;;5190863;28;8806;-77
2022/08/17 12:43:20;;;;;;;;;3.50;3.50;;;;;;;;5190785;28;8831;-76
2022/08/17 12:45:56;;;;;;;;;3.25;3.25;;;;;;;;5207458;28;8795;-77
2022/08/17 12:48:28;;;;;;;;;6.00;6.00;;;;;;;;5190119;28;8937;-77
2022/08/17 12:51:00;;;;;;;;;4.00;4.00;;;;;;;;5214627;28;8786;-77
2022/08/17 12:53:53;;;;;;;;;7.00;7.00;;;;;;;;5186016;28;8801;-74
2022/08/17 12:56:24;;;;;;;;;6.00;6.00;;;;;;;;5174698;28;8773;-77
2022/08/17 12:58:55;;;;;;;;;3.50;3.50;;;;;;;;5191015;28;8820;-76
2022/08/17 13:01:26;;;;;;;;;3.75;3.75;;;;;;;;5190480;28;8836;-79
2022/08/17 13:03:58;;;;;;;;;5.75;5.75;;;;;;;;5190352;28;8907;-79
2022/08/17 13:06:32;;;;;;;;;4.25;4.25;;;;;;;;5212987;28;8860;-79
2022/08/17 13:09:14;;;;;;;;;2.00;2.00;;;;;;;;5190868;28;8852;-77
2022/08/17 13:11:57;;;;;;;;;5.00;5.00;;;;;;;;5181259;28;8814;-78
2022/08/17 13:14:28;;;;;;;;;5.00;5.00;;;;;;;;5184560;28;9520;-78
2022/08/17 13:17:00;;;;;;;;;5.00;5.00;;;;;;;;5207425;28;8802;-81
2022/08/17 13:19:37;;;;;;;;;4.75;4.75;;;;;;;;5223054;28;8789;-78
2022/08/17 13:22:10;;;;;;;;;6.00;6.00;;;;;;;;5169973;28;8835;-78
2022/08/17 13:24:52;;;;;;;;;3.75;3.75;;;;;;;;5186365;28;8802;-77
2022/08/17 13:27:24;;;;;;;;;3.00;3.00;;;;;;;;5164007;28;8800;-78
2022/08/17 13:30:18;;;;;;;;;2.75;2.75;;;;;;;;5192829;28;8795;-78
2022/08/17 13:32:49;;;;;;;;;3.50;3.50;;;;;;;;5199679;28;8796;-76
2022/08/17 13:35:43;;;;;;;;;5.00;5.00;;;;;;;;5201319;28;8918;-78
2022/08/17 13:38:15;;;;;;;;;3.00;3.00;;;;;;;;5185503;28;8777;-79
2022/08/17 13:40:49;;;;;;;;;1.00;1.00;;;;;;;;5192759;28;8850;-77
2022/08/17 13:43:36;;;;;;;;;1.00;1.00;;;;;;;;5186735;28;8811;-77
2022/08/17 13:46:09;;;;;;;;;6.50;6.50;;;;;;;;5204295;28;8917;-78
2022/08/17 13:48:40;;;;;;;;;5.25;5.25;;;;;;;;5197152;28;8803;-78
2022/08/17 13:51:12;;;;;;;;;2.75;2.75;;;;;;;;5200906;28;8810;-78
2022/08/17 13:53:43;;;;;;;;;8.50;8.50;;;;;;;;5186633;28;8869;-78
2022/08/17 13:56:27;;;;;;;;;5.25;5.25;;;;;;;;5202693;28;9598;-78
2022/08/17 13:59:01;;;;;;;;;6.50;6.50;;;;;;;;5185314;28;8933;-82
2022/08/17 14:01:46;;;;;;;;;4.00;4.00;;;;;;;;5170371;28;8847;-81
2022/08/17 14:04:18;;;;;;;;;9.50;9.50;;;;;;;;5185759;28;9644;-80
2022/08/17 14:06:52;;;;;;;;;14.50;14.50;;;;;;;;5184179;28;8805;-82
2022/08/17 14:09:46;;;;;;;;;7.50;7.50;;;;;;;;5185923;28;8811;-82
2022/08/17 14:12:19;;;;;;;;;4.00;4.00;;;;;;;;5196344;28;9529;-81
2022/08/17 14:14:50;;;;;;;;;3.00;3.00;;;;;;;;5158017;28;9524;-80
2022/08/17 14:17:22;;;;;;;;;12.00;12.00;;;;;;;;5195860;28;8834;-80
2022/08/17 14:19:54;;;;;;;;;7.00;7.00;;;;;;;;5195523;28;8836;-80
2022/08/17 14:22:32;;;;;;;;;25.50;25.50;;;;;;;;5192672;28;8854;-81
2022/08/17 14:25:04;;;;;;;;;6.00;6.00;;;;;;;;5177027;28;8815;-81
2022/08/17 14:27:36;;;;;;;;;10.00;9.75;;;;;;;;5175446;28;8853;-77
2022/08/17 14:30:07;;;;;;;;;19.75;19.75;;;;;;;;5186280;28;8858;-81
2022/08/17 14:32:40;;;;;;;;;12.50;12.50;;;;;;;;5164429;28;8815;-79
2022/08/17 14:35:12;;;;;;;;;4.00;4.00;;;;;;;;5184406;28;8803;-79
2022/08/17 14:37:46;;;;;;;;;78.25;77.25;;;;;;;;5190779;28;8790;-78
2022/08/17 14:40:19;;;;;;;;;12.00;12.00;;;;;;;;5197962;28;8873;-81
2022/08/17 14:42:51;;;;;;;;;7.75;7.75;;;;;;;;5201601;28;8920;-82
2022/08/17 14:45:23;;;;;;;;;5.25;5.25;;;;;;;;5183013;28;8816;-80
2022/08/17 14:47:54;;;;;;;;;3.50;3.50;;;;;;;;5179452;28;8906;-81
2022/08/17 14:50:26;;;;;;;;;17.75;17.75;;;;;;;;5194544;28;8970;-77
2022/08/17 14:52:56;;;;;;;;;6.00;6.00;;;;;;;;5172265;28;8879;-81
2022/08/17 14:55:28;;;;;;;;;22.25;22.25;;;;;;;;5188591;28;8781;-80
2022/08/17 14:57:59;;;;;;;;;4.75;4.75;;;;;;;;5208749;28;9566;-79
2022/08/17 15:00:30;;;;;;;;;1.50;1.50;;;;;;;;5192615;28;8917;-79
2022/08/17 15:03:02;;;;;;;;;5.25;5.25;;;;;;;;5192327;28;8802;-79
2022/08/17 15:05:33;;;;;;;;;9.75;9.75;;;;;;;;5208784;28;8809;-79
2022/08/17 15:08:05;;;;;;;;;3.25;3.25;;;;;;;;5171982;28;8796;-78
2022/08/17 15:10:37;;;;;;;;;7.00;7.00;;;;;;;;5172019;28;8784;-78
2022/08/17 15:13:27;;;;;;;;;8.50;8.50;;;;;;;;5174306;28;8813;-79
2022/08/17 15:15:58;;;;;;;;;32.25;30.50;;;;;;;;5171757;28;8990;-78
2022/08/17 15:18:30;;;;;;;;;20.50;20.50;;;;;;;;5187831;28;9512;-78
2022/08/17 15:21:02;;;;;;;;;8.25;8.25;;;;;;;;5193503;28;8941;-77
2022/08/17 15:23:33;;;;;;;;;11.00;11.00;;;;;;;;5208214;28;8797;-79
2022/08/17 15:26:23;;;;;;;;;9.00;9.00;;;;;;;;5187983;28;8808;-79
2022/08/17 15:28:55;;;;;;;;;11.75;11.75;;;;;;;;5155780;28;8799;-78
2022/08/17 15:31:26;;;;;;;;;10.00;10.00;;;;;;;;5187802;28;8785;-78
2022/08/17 15:33:57;;;;;;;;;11.75;11.75;;;;;;;;5188112;28;8789;-79
2022/08/17 15:36:47;;;;;;;;;10.25;10.25;;;;;;;;5174022;28;8832;-80
2022/08/17 15:39:17;;;;;;;;;3.00;3.00;;;;;;;;5171607;28;8801;-76
2022/08/17 15:42:08;;;;;;;;;6.00;6.00;;;;;;;;5207691;28;8856;-79
2022/08/17 15:44:58;;;;;;;;;3.00;3.00;;;;;;;;5210849;28;8790;-78
2022/08/17 15:47:29;;;;;;;;;5.25;5.25;;;;;;;;5178971;28;8789;-78
2022/08/17 15:50:18;;;;;;;;;7.25;7.25;;;;;;;;5218559;28;8769;-78
2022/08/17 15:52:54;;;;;;;;;8.67;8.67;;;;;;;;5205221;28;8815;-78
2022/08/17 15:55:27;;;;;;;;;10.75;10.75;;;;;;;;5171996;28;8785;-78
2022/08/17 15:57:58;;;;;;;;;9.50;9.50;;;;;;;;5205101;28;8801;-78
2022/08/17 16:00:29;;;;;;;;;20.00;20.00;;;;;;;;5171065;28;8824;-78
2022/08/17 16:03:00;;;;;;;;;11.75;11.75;;;;;;;;5187653;28;8821;-78
2022/08/17 16:05:31;;;;;;;;;23.75;23.75;;;;;;;;5203779;28;8923;-79
2022/08/17 16:08:02;;;;;;;;;29.50;28.75;;;;;;;;5186968;28;8777;-80
2022/08/17 16:10:33;;;;;;;;;37.00;33.80;;;;;;;;5205210;28;9570;-79
2022/08/17 16:13:04;;;;;;;;;48.20;41.00;;;;;;;;5188126;28;8793;-79
2022/08/17 16:15:36;;;;;;;;;39.20;34.60;;;;;;;;5206133;28;8855;-79
2022/08/17 16:18:08;;;;;;;;;43.60;37.20;;;;;;;;5206601;28;8793;-78